createdAt,value
2023-01-17T00:02:05.755Z,2.40
2023-01-17T00:04:51.755Z,2.20
2023-01-17T00:07:39.203Z,2.10
2023-01-17T00:10:11.323Z,2.00
2023-01-17T00:12:41.245Z,2.00
2023-01-17T00:15:10.800Z,2.00
2023-01-17T00:17:39.005Z,1.90
2023-01-17T00:20:25.805Z,1.80
2023-01-17T00:23:11.568Z,1.80
2023-01-17T00:25:58.143Z,1.80
2023-01-17T00:28:27.458Z,1.70
2023-01-17T00:30:54.595Z,1.60
2023-01-17T00:33:23.059Z,1.60
2023-01-17T00:35:51.375Z,1.60
2023-01-17T00:38:21.003Z,1.60
2023-01-17T00:40:48.940Z,1.50
2023-01-17T00:43:36.210Z,1.50
2023-01-17T00:46:24.063Z,1.50
2023-01-17T00:49:10.429Z,1.50
2023-01-17T00:51:56.514Z,1.40
2023-01-17T00:54:42.191Z,1.40
2023-01-17T00:57:27.827Z,1.30
2023-01-17T01:00:13.352Z,1.30
2023-01-17T01:03:00.655Z,1.30
2023-01-17T01:05:48.680Z,1.30
2023-01-17T01:08:36.767Z,1.20
2023-01-17T01:11:27.305Z,1.20
2023-01-17T01:14:13.976Z,1.20
2023-01-17T01:17:02.148Z,1.20
2023-01-17T01:19:49.315Z,1.20
2023-01-17T01:22:34.917Z,1.10
2023-01-17T01:25:21.058Z,1.10
2023-01-17T01:28:06.487Z,1.10
2023-01-17T01:30:52.176Z,1.10
2023-01-17T01:33:19.360Z,1.10
2023-01-17T01:35:50.992Z,1.10
2023-01-17T01:38:20.053Z,1.00
2023-01-17T01:40:50.393Z,1.10
2023-01-17T01:43:20.835Z,1.10
2023-01-17T01:45:54.056Z,1.10
2023-01-17T01:48:34.368Z,1.10
2023-01-17T01:51:07.133Z,1.10
2023-01-17T01:53:39.673Z,1.10
2023-01-17T01:56:11.638Z,1.00
2023-01-17T01:58:41.367Z,1.00
2023-01-17T02:01:10.436Z,1.00
2023-01-17T02:03:42.897Z,1.10
2023-01-17T02:06:25.177Z,1.00
2023-01-17T02:08:53.695Z,1.00
2023-01-17T02:11:23.385Z,1.00
2023-01-17T02:13:51.633Z,1.00
2023-01-17T02:16:33.618Z,0.90
2023-01-17T02:19:20.195Z,0.90
2023-01-17T02:22:01.066Z,0.90
2023-01-17T02:24:52.943Z,0.90
2023-01-17T02:27:26.793Z,0.90
2023-01-17T02:30:31.407Z,0.90
2023-01-17T02:33:18.009Z,0.80
2023-01-17T02:35:57.393Z,0.80
2023-01-17T02:38:35.069Z,0.80
2023-01-17T02:41:07.839Z,0.80
2023-01-17T02:43:38.129Z,0.70
2023-01-17T02:46:09.836Z,0.70
2023-01-17T02:48:39.685Z,0.60
2023-01-17T02:51:40.989Z,0.70
2023-01-17T02:54:42.521Z,0.60
2023-01-17T02:57:26.717Z,0.60
2023-01-17T03:00:02.861Z,0.60
2023-01-17T03:02:39.379Z,0.60
2023-01-17T03:05:14.637Z,0.50
2023-01-17T03:07:44.437Z,0.50
2023-01-17T03:10:15.774Z,0.50
2023-01-17T03:12:44.683Z,0.50
2023-01-17T03:15:14.263Z,0.40
2023-01-17T03:17:51.463Z,0.40
2023-01-17T03:20:22.293Z,0.40
2023-01-17T03:22:50.834Z,0.40
2023-01-17T03:25:19.035Z,0.40
2023-01-17T03:27:47.475Z,0.40
2023-01-17T03:30:16.064Z,0.50
2023-01-17T03:32:45.736Z,0.50
2023-01-17T03:35:13.932Z,0.70
2023-01-17T03:37:44.467Z,0.80
2023-01-17T03:40:15.317Z,0.80
2023-01-17T03:42:45.803Z,0.80
2023-01-17T03:45:14.252Z,0.80
2023-01-17T03:47:42.517Z,0.80
2023-01-17T03:50:13.736Z,0.70
2023-01-17T03:52:42.029Z,0.70
2023-01-17T03:55:11.129Z,0.70
2023-01-17T03:57:39.395Z,0.60
2023-01-17T04:00:09.091Z,0.70
2023-01-17T04:02:37.461Z,0.60
2023-01-17T04:05:06.288Z,0.60
2023-01-17T04:07:35.948Z,0.60
2023-01-17T04:10:04.467Z,0.60
2023-01-17T04:12:32.735Z,0.60
2023-01-17T04:15:00.914Z,0.60
2023-01-17T04:17:29.325Z,0.60
2023-01-17T04:19:57.655Z,0.60
2023-01-17T04:22:26.056Z,0.60
2023-01-17T04:24:55.693Z,0.50
2023-01-17T04:27:23.929Z,0.60
2023-01-17T04:29:54.464Z,0.40
2023-01-17T04:32:22.745Z,0.50
2023-01-17T04:34:50.896Z,0.40
2023-01-17T04:37:19.179Z,0.40
2023-01-17T04:39:47.371Z,0.40
2023-01-17T04:42:17.005Z,0.50
2023-01-17T04:44:45.336Z,0.40
2023-01-17T04:47:13.640Z,0.40
2023-01-17T04:49:44.030Z,0.40
2023-01-17T04:52:12.741Z,0.30
2023-01-17T04:54:41.481Z,0.30
2023-01-17T04:57:09.721Z,0.30
2023-01-17T04:59:39.337Z,0.40
2023-01-17T05:02:07.697Z,0.30
2023-01-17T05:04:35.988Z,0.30
2023-01-17T05:07:04.572Z,0.40
2023-01-17T05:09:33.023Z,0.30
2023-01-17T05:12:01.461Z,0.40
2023-01-17T05:14:29.860Z,0.30
2023-01-17T05:16:59.961Z,0.30
2023-01-17T05:19:28.662Z,0.30
2023-01-17T05:22:03.803Z,0.30
2023-01-17T05:24:32.350Z,0.20
2023-01-17T05:27:03.829Z,0.20
2023-01-17T05:29:32.202Z,0.10
2023-01-17T05:32:01.824Z,0.10
2023-01-17T05:34:30.176Z,0.10
2023-01-17T05:36:58.502Z,0.00
2023-01-17T05:39:26.911Z,0.00
2023-01-17T05:41:55.181Z,-0.10
2023-01-17T05:44:23.565Z,-0.10
2023-01-17T05:46:51.860Z,-0.10
2023-01-17T05:49:21.542Z,-0.10
2023-01-17T05:51:49.872Z,-0.20
2023-01-17T05:54:18.464Z,-0.30
2023-01-17T05:56:46.701Z,-0.40
2023-01-17T05:59:20.582Z,-0.40
2023-01-17T06:01:54.336Z,-0.40
2023-01-17T06:04:24.084Z,-0.50
2023-01-17T06:06:52.395Z,-0.50
2023-01-17T06:09:20.681Z,-0.50
2023-01-17T06:11:48.934Z,-0.60
2023-01-17T06:14:17.113Z,-0.70
2023-01-17T06:16:47.720Z,-0.70
2023-01-17T06:19:16.013Z,-0.70
2023-01-17T06:21:45.530Z,-0.70
2023-01-17T06:24:14.110Z,-0.80
2023-01-17T06:26:44.745Z,-0.80
2023-01-17T06:29:13.348Z,-0.80
2023-01-17T06:31:41.649Z,-0.80
2023-01-17T06:34:09.867Z,-0.90
2023-01-17T06:36:38.168Z,-0.90
2023-01-17T06:39:07.842Z,-0.90
2023-01-17T06:41:36.027Z,-0.90
2023-01-17T06:44:04.423Z,-0.90
2023-01-17T06:46:32.744Z,-0.90
2023-01-17T06:49:01.088Z,-1.00
2023-01-17T06:51:31.610Z,-1.00
2023-01-17T06:53:59.853Z,-1.00
2023-01-17T06:56:31.766Z,-0.90
2023-01-17T06:59:02.293Z,-0.90
2023-01-17T07:01:30.978Z,-1.00
2023-01-17T07:04:00.123Z,-0.90
2023-01-17T07:06:28.856Z,-1.00
2023-01-17T07:08:57.294Z,-0.90
2023-01-17T07:11:27.323Z,-0.90
2023-01-17T07:13:56.980Z,-0.90
2023-01-17T07:16:25.252Z,-1.00
2023-01-17T07:18:54.816Z,-0.90
2023-01-17T07:21:23.086Z,-1.00
2023-01-17T07:23:51.367Z,-1.10
2023-01-17T07:26:19.634Z,-1.10
2023-01-17T07:28:47.866Z,-1.00
2023-01-17T07:31:17.477Z,-1.10
2023-01-17T07:33:45.680Z,-1.10
2023-01-17T07:36:13.902Z,-1.10
2023-01-17T07:38:43.910Z,-1.10
2023-01-17T07:41:12.171Z,-1.10
2023-01-17T07:43:40.331Z,-1.00
2023-01-17T07:46:08.867Z,-1.00
2023-01-17T07:48:38.554Z,-1.10
2023-01-17T07:51:07.113Z,-1.10
2023-01-17T07:53:35.338Z,-1.20
2023-01-17T07:56:05.319Z,-1.30
2023-01-17T07:58:34.141Z,-1.30
2023-01-17T08:01:04.066Z,-1.30
2023-01-17T08:03:35.861Z,-1.30
2023-01-17T08:06:06.129Z,-1.30
2023-01-17T08:08:34.443Z,-1.30
2023-01-17T08:11:03.731Z,-1.20
2023-01-17T08:13:31.961Z,-1.10
2023-01-17T08:16:02.308Z,-1.20
2023-01-17T08:18:30.728Z,-1.20
2023-01-17T08:20:58.997Z,-1.20
2023-01-17T08:23:31.166Z,-1.10
2023-01-17T08:26:01.589Z,-1.10
2023-01-17T08:28:29.833Z,-1.10
2023-01-17T08:30:58.125Z,-1.00
2023-01-17T08:33:26.474Z,-1.00
2023-01-17T08:35:55.085Z,-1.00
2023-01-17T08:38:24.495Z,-0.90
2023-01-17T08:40:54.712Z,-0.80
2023-01-17T08:43:22.994Z,-0.90
2023-01-17T08:45:51.675Z,-0.80
2023-01-17T08:48:20.239Z,-0.80
2023-01-17T08:50:48.520Z,-0.70
2023-01-17T08:53:18.068Z,-0.60
2023-01-17T08:55:46.369Z,-0.60
2023-01-17T08:58:16.156Z,-0.50
2023-01-17T09:00:44.530Z,-0.40
2023-01-17T09:03:14.483Z,-0.40
2023-01-17T09:05:42.805Z,-0.20
2023-01-17T09:08:11.176Z,-0.20
2023-01-17T09:10:39.444Z,-0.10
2023-01-17T09:13:08.105Z,-0.10
2023-01-17T09:15:37.650Z,0.00
2023-01-17T09:18:05.948Z,0.10
2023-01-17T09:20:34.218Z,0.10
2023-01-17T09:23:03.946Z,0.20
2023-01-17T09:25:32.172Z,0.30
2023-01-17T09:28:00.466Z,0.30
2023-01-17T09:30:28.824Z,0.40
2023-01-17T09:32:58.444Z,0.40
2023-01-17T09:35:26.744Z,0.50
2023-01-17T09:37:57.178Z,0.60
2023-01-17T09:40:26.492Z,0.60
2023-01-17T09:43:01.307Z,0.70
2023-01-17T09:45:32.746Z,0.60
2023-01-17T09:48:07.588Z,0.80
2023-01-17T09:50:44.555Z,1.00
2023-01-17T09:53:15.954Z,1.00
2023-01-17T09:55:48.786Z,1.00
2023-01-17T09:58:22.101Z,1.10
2023-01-17T10:01:00.196Z,1.10
2023-01-17T10:03:54.929Z,1.20
2023-01-17T10:06:37.045Z,1.30
2023-01-17T10:09:34.769Z,1.40
2023-01-17T10:12:15.322Z,1.40
2023-01-17T10:15:07.245Z,1.50
2023-01-17T10:17:44.737Z,1.50
2023-01-17T10:20:34.231Z,1.60
2023-01-17T10:23:22.137Z,1.60
2023-01-17T10:25:52.355Z,1.70
2023-01-17T10:28:26.377Z,1.70
2023-01-17T10:31:01.708Z,1.90
2023-01-17T10:33:32.364Z,1.90
2023-01-17T10:36:06.749Z,2.00
2023-01-17T10:38:37.582Z,2.10
2023-01-17T10:41:10.331Z,2.10
2023-01-17T10:43:47.543Z,2.20
2023-01-17T10:46:20.082Z,2.30
2023-01-17T10:48:52.189Z,2.40
2023-01-17T10:51:43.951Z,2.50
2023-01-17T10:54:26.461Z,2.60
2023-01-17T10:56:54.990Z,2.60
2023-01-17T10:59:29.800Z,2.60
2023-01-17T11:01:58.340Z,2.70
2023-01-17T11:04:35.817Z,2.80
2023-01-17T11:07:14.937Z,2.70
2023-01-17T11:09:45.313Z,2.70
2023-01-17T11:12:29.227Z,2.70
2023-01-17T11:15:19.801Z,2.70
2023-01-17T11:17:52.897Z,2.80
2023-01-17T11:20:29.161Z,2.80
2023-01-17T11:23:12.462Z,2.90
2023-01-17T11:25:40.892Z,3.00
2023-01-17T11:28:22.007Z,3.00
2023-01-17T11:30:55.906Z,3.00
2023-01-17T11:33:53.714Z,3.10
2023-01-17T11:36:24.624Z,3.10
2023-01-17T11:38:59.399Z,3.20
2023-01-17T11:41:33.819Z,3.20
2023-01-17T11:44:03.181Z,3.10
2023-01-17T11:46:32.259Z,3.20
2023-01-17T11:49:01.981Z,3.00
2023-01-17T11:51:32.871Z,3.10
2023-01-17T11:54:16.548Z,3.20
2023-01-17T11:56:46.356Z,3.50
2023-01-17T11:59:27.734Z,3.60
2023-01-17T12:02:16.184Z,3.60
2023-01-17T12:04:48.280Z,3.60
2023-01-17T12:07:30.650Z,3.70
2023-01-17T12:10:08.069Z,3.40
2023-01-17T12:13:06.082Z,3.20
2023-01-17T12:15:55.954Z,3.30
2023-01-17T12:18:36.560Z,3.40
2023-01-17T12:21:15.591Z,3.60
2023-01-17T12:24:21.332Z,3.70
2023-01-17T12:27:00.364Z,3.70
2023-01-17T12:29:48.892Z,3.30
2023-01-17T12:32:41.647Z,3.30
2023-01-17T12:35:15.967Z,3.30
2023-01-17T12:37:57.358Z,3.30
2023-01-17T12:40:37.892Z,3.30
2023-01-17T12:43:15.559Z,3.20
2023-01-17T12:45:46.256Z,3.30
2023-01-17T12:48:18.340Z,3.30
2023-01-17T12:50:53.254Z,3.30
2023-01-17T12:53:28.512Z,3.30
2023-01-17T12:56:01.918Z,3.30
2023-01-17T12:58:39.273Z,3.20
2023-01-17T13:01:13.869Z,3.20
2023-01-17T13:03:56.094Z,3.30
2023-01-17T13:06:32.750Z,3.00
2023-01-17T13:09:04.766Z,3.00
2023-01-17T13:11:41.061Z,3.00
2023-01-17T13:14:11.913Z,3.00
2023-01-17T13:16:43.999Z,3.10
2023-01-17T13:19:21.395Z,3.10
2023-01-17T13:21:51.152Z,3.20
2023-01-17T13:24:31.692Z,3.30
2023-01-17T13:27:31.645Z,3.30
2023-01-17T13:30:23.795Z,3.20
2023-01-17T13:33:15.290Z,3.10
2023-01-17T13:35:58.123Z,3.20
2023-01-17T13:38:36.503Z,3.20
2023-01-17T13:41:15.505Z,3.20
2023-01-17T13:44:06.978Z,3.20
2023-01-17T13:46:57.462Z,3.20
2023-01-17T13:49:35.430Z,3.30
2023-01-17T13:52:10.532Z,3.30
2023-01-17T13:54:45.805Z,3.30
2023-01-17T13:57:36.154Z,3.30
2023-01-17T14:00:37.536Z,3.40
2023-01-17T14:03:11.906Z,3.60
2023-01-17T14:05:56.715Z,3.50
2023-01-17T14:08:27.323Z,3.40
2023-01-17T14:11:06.468Z,3.30
2023-01-17T14:13:37.903Z,3.20
2023-01-17T14:16:24.337Z,3.10
2023-01-17T14:18:54.941Z,3.00
2023-01-17T14:21:24.956Z,2.90
2023-01-17T14:24:03.950Z,2.90
2023-01-17T14:26:46.785Z,2.90
2023-01-17T14:29:52.253Z,3.00
2023-01-17T14:32:23.076Z,3.10
2023-01-17T14:34:53.940Z,3.10
2023-01-17T14:37:29.008Z,3.10
2023-01-17T14:39:57.363Z,3.00
2023-01-17T14:42:27.679Z,3.00
2023-01-17T14:45:04.103Z,3.00
2023-01-17T14:47:35.155Z,3.00
2023-01-17T14:50:22.913Z,3.10
2023-01-17T14:53:09.221Z,3.10
2023-01-17T14:55:37.475Z,3.10
2023-01-17T14:58:06.143Z,3.10
2023-01-17T15:00:40.644Z,3.00
2023-01-17T15:03:12.630Z,2.90
2023-01-17T15:05:44.438Z,2.70
2023-01-17T15:08:14.994Z,2.60
2023-01-17T15:10:51.584Z,2.70
2023-01-17T15:13:35.445Z,2.50
2023-01-17T15:16:23.482Z,2.40
2023-01-17T15:18:52.619Z,2.40
2023-01-17T15:21:24.011Z,2.30
2023-01-17T15:23:55.184Z,2.30
2023-01-17T15:26:26.322Z,2.30
2023-01-17T15:29:01.173Z,2.40
2023-01-17T15:31:40.849Z,2.30
2023-01-17T15:34:14.916Z,2.20
2023-01-17T15:36:48.810Z,2.10
2023-01-17T15:39:21.293Z,2.10
2023-01-17T15:41:53.037Z,2.00
2023-01-17T15:44:42.615Z,1.90
2023-01-17T15:47:29.138Z,1.80
2023-01-17T15:49:57.798Z,1.80
2023-01-17T15:52:27.548Z,1.60
2023-01-17T15:54:59.965Z,1.50
2023-01-17T15:57:30.406Z,1.50
2023-01-17T16:00:05.820Z,1.40
2023-01-17T16:02:37.852Z,1.30
2023-01-17T16:05:33.488Z,1.30
2023-01-17T16:08:27.994Z,1.10
2023-01-17T16:11:01.772Z,1.00
2023-01-17T16:13:31.423Z,0.90
2023-01-17T16:16:21.402Z,0.90
2023-01-17T16:18:55.780Z,0.80
2023-01-17T16:21:26.616Z,0.70
2023-01-17T16:23:58.138Z,0.60
2023-01-17T16:26:28.546Z,0.50
2023-01-17T16:28:56.757Z,0.40
2023-01-17T16:31:24.998Z,0.30
2023-01-17T16:33:53.434Z,0.30
2023-01-17T16:36:22.980Z,0.20
2023-01-17T16:38:53.086Z,0.20
2023-01-17T16:41:23.037Z,0.10
2023-01-17T16:43:59.702Z,0.00
2023-01-17T16:46:28.550Z,0.00
2023-01-17T16:48:57.016Z,-0.10
2023-01-17T16:51:25.231Z,-0.10
2023-01-17T16:53:53.447Z,-0.10
2023-01-17T16:56:23.291Z,-0.20
2023-01-17T16:58:52.656Z,-0.20
2023-01-17T17:01:22.757Z,-0.30
2023-01-17T17:03:51.284Z,-0.30
2023-01-17T17:06:19.718Z,-0.30
2023-01-17T17:08:48.505Z,-0.40
2023-01-17T17:11:18.378Z,-0.40
2023-01-17T17:13:49.791Z,-0.40
2023-01-17T17:16:20.232Z,-0.40
2023-01-17T17:18:55.731Z,-0.50
2023-01-17T17:21:24.117Z,-0.50
2023-01-17T17:23:56.835Z,-0.60
2023-01-17T17:26:26.686Z,-0.60
2023-01-17T17:28:56.437Z,-0.60
2023-01-17T17:31:25.281Z,-0.60
2023-01-17T17:33:54.071Z,-0.60
2023-01-17T17:36:24.382Z,-0.60
2023-01-17T17:38:55.741Z,-0.70
2023-01-17T17:41:26.067Z,-0.80
2023-01-17T17:43:56.899Z,-0.80
2023-01-17T17:46:27.176Z,-0.80
2023-01-17T17:48:55.492Z,-0.90
2023-01-17T17:51:25.956Z,-0.90
2023-01-17T17:53:54.861Z,-0.90
2023-01-17T17:56:23.841Z,-0.90
2023-01-17T17:58:52.122Z,-0.90
2023-01-17T18:01:24.290Z,-0.90
2023-01-17T18:03:53.347Z,-0.90
2023-01-17T18:06:22.110Z,-0.90
2023-01-17T18:08:54.510Z,-0.90
2023-01-17T18:11:25.883Z,-0.90
2023-01-17T18:13:55.928Z,-1.00
2023-01-17T18:16:27.572Z,-1.00
2023-01-17T18:18:57.985Z,-1.10
2023-01-17T18:21:27.832Z,-1.10
2023-01-17T18:23:58.727Z,-1.10
2023-01-17T18:26:29.143Z,-1.00
2023-01-17T18:28:59.070Z,-1.10
2023-01-17T18:31:30.670Z,-1.10
2023-01-17T18:34:00.592Z,-1.20
2023-01-17T18:36:29.467Z,-1.20
2023-01-17T18:38:58.252Z,-1.10
2023-01-17T18:41:28.705Z,-1.20
2023-01-17T18:43:57.382Z,-1.10
2023-01-17T18:46:28.244Z,-1.10
2023-01-17T18:48:57.917Z,-1.20
2023-01-17T18:51:27.056Z,-1.20
2023-01-17T18:53:55.299Z,-1.10
2023-01-17T18:56:24.239Z,-1.20
2023-01-17T18:58:52.485Z,-1.20
2023-01-17T19:01:22.269Z,-1.20
2023-01-17T19:03:54.832Z,-1.20
2023-01-17T19:06:25.975Z,-1.10
2023-01-17T19:08:54.294Z,-1.20
2023-01-17T19:11:23.959Z,-1.20
2023-01-17T19:13:52.511Z,-1.20
2023-01-17T19:16:24.308Z,-1.20
2023-01-17T19:18:54.567Z,-1.30
2023-01-17T19:21:24.481Z,-1.20
2023-01-17T19:23:53.325Z,-1.20
2023-01-17T19:26:23.129Z,-1.10
2023-01-17T19:28:51.786Z,-1.10
2023-01-17T19:31:22.065Z,-1.10
2023-01-17T19:33:51.669Z,-1.10
2023-01-17T19:36:23.952Z,-1.10
2023-01-17T19:39:03.957Z,-1.10
2023-01-17T19:41:34.545Z,-1.10
2023-01-17T19:44:06.578Z,-1.10
2023-01-17T19:46:35.691Z,-1.10
2023-01-17T19:49:05.100Z,-1.20
2023-01-17T19:51:35.006Z,-1.20
2023-01-17T19:54:06.713Z,-1.20
2023-01-17T19:56:35.212Z,-1.30
2023-01-17T19:59:03.599Z,-1.20
2023-01-17T20:01:34.281Z,-1.20
2023-01-17T20:04:04.908Z,-1.20
2023-01-17T20:06:36.802Z,-1.10
2023-01-17T20:09:06.126Z,-1.20
2023-01-17T20:11:34.695Z,-1.20
2023-01-17T20:14:03.222Z,-1.10
2023-01-17T20:16:32.894Z,-1.10
2023-01-17T20:19:02.712Z,-1.10
2023-01-17T20:21:32.472Z,-1.20
2023-01-17T20:24:04.191Z,-1.10
2023-01-17T20:26:37.805Z,-1.10
2023-01-17T20:29:10.347Z,-1.20
2023-01-17T20:31:40.071Z,-1.20
2023-01-17T20:34:11.469Z,-1.20
2023-01-17T20:36:40.359Z,-1.20
2023-01-17T20:39:10.998Z,-1.10
2023-01-17T20:41:40.983Z,-1.10
2023-01-17T20:44:12.758Z,-1.10
2023-01-17T20:46:41.891Z,-1.10
2023-01-17T20:49:14.591Z,-1.10
2023-01-17T20:51:44.209Z,-1.10
2023-01-17T20:54:16.068Z,-1.10
2023-01-17T20:56:47.152Z,-1.10
2023-01-17T20:59:17.792Z,-1.20
2023-01-17T21:01:46.645Z,-1.20
2023-01-17T21:04:15.127Z,-1.30
2023-01-17T21:06:44.425Z,-1.30
2023-01-17T21:09:17.091Z,-1.30
2023-01-17T21:11:45.451Z,-1.40
2023-01-17T21:14:13.764Z,-1.40
2023-01-17T21:16:42.241Z,-1.50
2023-01-17T21:19:12.013Z,-1.50
2023-01-17T21:21:40.468Z,-1.50
2023-01-17T21:24:08.748Z,-1.60
2023-01-17T21:26:39.882Z,-1.60
2023-01-17T21:29:08.069Z,-1.60
2023-01-17T21:31:36.815Z,-1.50
2023-01-17T21:34:06.563Z,-1.40
2023-01-17T21:36:38.448Z,-1.30
2023-01-17T21:39:11.355Z,-1.30
2023-01-17T21:41:42.284Z,-1.30
2023-01-17T21:44:14.581Z,-1.30
2023-01-17T21:46:43.209Z,-1.20
2023-01-17T21:49:12.227Z,-1.30
2023-01-17T21:51:58.254Z,-1.30
2023-01-17T21:54:41.687Z,-1.30
2023-01-17T21:57:33.024Z,-1.30
2023-01-17T22:00:01.276Z,-1.30
2023-01-17T22:02:29.672Z,-1.30
2023-01-17T22:04:57.896Z,-1.20
2023-01-17T22:07:26.984Z,-1.30
2023-01-17T22:09:57.795Z,-1.30
2023-01-17T22:12:27.490Z,-1.20
2023-01-17T22:14:55.688Z,-1.30
2023-01-17T22:17:26.080Z,-1.40
2023-01-17T22:19:54.353Z,-1.30
2023-01-17T22:22:22.587Z,-1.40
2023-01-17T22:24:53.848Z,-1.40
2023-01-17T22:27:22.135Z,-1.50
2023-01-17T22:29:51.764Z,-1.50
2023-01-17T22:32:19.988Z,-1.50
2023-01-17T22:34:48.456Z,-1.50
2023-01-17T22:37:16.744Z,-1.50
2023-01-17T22:39:44.907Z,-1.50
2023-01-17T22:42:14.015Z,-1.60
2023-01-17T22:44:42.225Z,-1.50
2023-01-17T22:47:11.837Z,-1.50
2023-01-17T22:49:40.174Z,-1.60
2023-01-17T22:52:08.368Z,-1.60
2023-01-17T22:54:36.617Z,-1.50
2023-01-17T22:57:06.209Z,-1.50
2023-01-17T22:59:35.370Z,-1.50
2023-01-17T23:02:03.578Z,-1.50
2023-01-17T23:04:33.227Z,-1.50
2023-01-17T23:07:01.572Z,-1.50
2023-01-17T23:09:29.942Z,-1.50
2023-01-17T23:11:58.297Z,-1.50
2023-01-17T23:14:29.687Z,-1.50
2023-01-17T23:17:17.515Z,-1.40
2023-01-17T23:19:49.331Z,-1.40
2023-01-17T23:22:20.154Z,-1.50
2023-01-17T23:24:51.122Z,-1.40
2023-01-17T23:27:39.533Z,-1.50
2023-01-17T23:30:11.485Z,-1.50
2023-01-17T23:32:40.450Z,-1.60
2023-01-17T23:35:10.465Z,-1.60
2023-01-17T23:37:56.192Z,-1.60
2023-01-17T23:40:24.931Z,-1.70
2023-01-17T23:43:10.773Z,-1.60
2023-01-17T23:45:40.151Z,-1.70
2023-01-17T23:48:10.674Z,-1.70
2023-01-17T23:50:41.315Z,-1.70
2023-01-17T23:53:10.322Z,-1.70
2023-01-17T23:55:40.015Z,-1.70
2023-01-17T23:58:10.022Z,-1.80
